createdAt,value
2017-12-26T00:01:17.621Z,101245.94
2017-12-26T00:03:46.581Z,101246.33
2017-12-26T00:06:18.580Z,101240.42
2017-12-26T00:08:49.311Z,101242.09
2017-12-26T00:11:18.201Z,101242.08
2017-12-26T00:13:48.026Z,101241.77
2017-12-26T00:16:17.011Z,101240.88
2017-12-26T00:18:45.943Z,101251.51
2017-12-26T00:21:16.021Z,101248.43
2017-12-26T00:23:45.020Z,101246.73
2017-12-26T00:26:15.645Z,101253.00
2017-12-26T00:28:44.745Z,101254.22
2017-12-26T00:31:14.557Z,101249.34
2017-12-26T00:33:43.448Z,101243.17
2017-12-26T00:36:12.338Z,101242.93
2017-12-26T00:38:43.054Z,101243.48
2017-12-26T00:41:11.964Z,101242.64
2017-12-26T00:43:42.552Z,101249.22
2017-12-26T00:46:11.589Z,101245.42
2017-12-26T00:48:42.434Z,101249.08
2017-12-26T00:51:11.419Z,101237.97
2017-12-26T00:53:41.334Z,101240.34
2017-12-26T00:56:10.262Z,101243.69
2017-12-26T00:58:40.353Z,101248.53
2017-12-26T01:01:09.311Z,101242.08
2017-12-26T01:03:38.331Z,101240.63
2017-12-26T01:06:07.431Z,101234.82
2017-12-26T01:08:36.730Z,101229.39
2017-12-26T01:11:05.831Z,101233.63
2017-12-26T01:13:35.641Z,101244.30
2017-12-26T01:16:05.556Z,101234.82
2017-12-26T01:18:34.657Z,101232.31
2017-12-26T01:21:03.647Z,101232.31
2017-12-26T01:23:34.159Z,101226.02
2017-12-26T01:26:03.269Z,101225.60
2017-12-26T01:28:33.085Z,101224.64
2017-12-26T01:31:04.530Z,101219.05
2017-12-26T01:33:34.285Z,101214.27
2017-12-26T01:36:04.094Z,101214.09
2017-12-26T01:38:33.050Z,101211.89
2017-12-26T01:41:02.249Z,101214.36
2017-12-26T01:43:32.064Z,101210.13
2017-12-26T01:46:24.304Z,101202.97
2017-12-26T01:48:53.199Z,101201.23
2017-12-26T01:51:22.394Z,101199.14
2017-12-26T01:53:51.419Z,101198.96
2017-12-26T01:56:20.359Z,101194.55
2017-12-26T01:58:51.427Z,101194.17
2017-12-26T02:01:21.789Z,101192.33
2017-12-26T02:03:50.706Z,101188.47
2017-12-26T02:06:19.631Z,101186.91
2017-12-26T02:08:49.667Z,101187.64
2017-12-26T02:11:20.696Z,101183.66
2017-12-26T02:13:55.617Z,101180.30
2017-12-26T02:16:24.662Z,101179.13
2017-12-26T02:18:54.952Z,101176.66
2017-12-26T02:21:26.611Z,101171.67
2017-12-26T02:23:56.407Z,101168.77
2017-12-26T02:26:26.441Z,101169.31
2017-12-26T02:28:58.406Z,101164.98
2017-12-26T02:31:27.231Z,101158.16
2017-12-26T02:33:57.933Z,101152.53
2017-12-26T02:36:28.869Z,101155.94
2017-12-26T02:38:58.787Z,101152.39
2017-12-26T02:41:27.810Z,101149.39
2017-12-26T02:43:56.980Z,101150.92
2017-12-26T02:46:26.824Z,101146.16
2017-12-26T02:48:56.838Z,101143.61
2017-12-26T02:51:26.723Z,101151.07
2017-12-26T02:53:57.754Z,101148.86
2017-12-26T02:56:27.783Z,101150.16
2017-12-26T02:58:57.632Z,101144.72
2017-12-26T03:01:26.558Z,101149.25
2017-12-26T03:03:55.613Z,101150.38
2017-12-26T03:06:24.622Z,101147.05
2017-12-26T03:08:53.733Z,101145.95
2017-12-26T03:11:24.509Z,101149.32
2017-12-26T03:13:53.533Z,101151.75
2017-12-26T03:16:23.417Z,101147.07
2017-12-26T03:18:55.278Z,101148.17
2017-12-26T03:21:24.272Z,101141.57
2017-12-26T03:23:56.002Z,101143.26
2017-12-26T03:26:25.137Z,101138.87
2017-12-26T03:28:54.222Z,101137.09
2017-12-26T03:34:01.430Z,101129.73
2017-12-26T03:36:30.515Z,101131.01
2017-12-26T03:38:59.619Z,101125.05
2017-12-26T03:41:28.545Z,101121.14
2017-12-26T03:43:57.538Z,101115.92
2017-12-26T03:46:26.499Z,101115.76
2017-12-26T03:48:55.728Z,101113.86
2017-12-26T03:51:25.508Z,101121.63
2017-12-26T03:53:55.433Z,101119.47
2017-12-26T03:56:24.418Z,101112.16
2017-12-26T03:58:53.728Z,101113.48
2017-12-26T04:01:22.758Z,101116.22
2017-12-26T04:03:51.742Z,101118.71
2017-12-26T04:06:20.738Z,101121.36
2017-12-26T04:08:50.717Z,101119.88
2017-12-26T04:11:19.756Z,101121.64
2017-12-26T04:13:49.728Z,101116.88
2017-12-26T04:18:55.321Z,101107.72
2017-12-26T04:21:25.354Z,101108.81
2017-12-26T04:23:55.305Z,101101.27
2017-12-26T04:26:24.527Z,101096.89
2017-12-26T04:28:55.176Z,101103.05
2017-12-26T04:31:25.626Z,101103.54
2017-12-26T04:33:56.466Z,101106.08
2017-12-26T04:36:25.461Z,101107.80
2017-12-26T04:41:29.990Z,101102.43
2017-12-26T04:43:58.895Z,101102.99
2017-12-26T04:46:27.920Z,101103.98
2017-12-26T04:48:56.950Z,101101.42
2017-12-26T04:51:26.035Z,101107.94
2017-12-26T04:53:55.949Z,101097.92
2017-12-26T04:56:25.766Z,101099.35
2017-12-26T04:58:55.369Z,101098.16
2017-12-26T05:03:58.684Z,101104.55
2017-12-26T05:06:27.714Z,101097.66
2017-12-26T05:08:56.670Z,101089.55
2017-12-26T05:11:27.438Z,101091.60
2017-12-26T05:13:57.301Z,101094.44
2017-12-26T05:16:26.305Z,101098.53
2017-12-26T05:18:57.221Z,101091.73
2017-12-26T05:21:27.176Z,101095.44
2017-12-26T05:23:56.099Z,101090.22
2017-12-26T05:26:25.300Z,101085.61
2017-12-26T05:28:54.210Z,101082.42
2017-12-26T05:31:23.226Z,101089.36
2017-12-26T05:33:52.995Z,101085.86
2017-12-26T05:36:23.900Z,101082.31
2017-12-26T05:38:53.026Z,101090.78
2017-12-26T05:41:22.846Z,101083.69
2017-12-26T05:43:53.857Z,101082.70
2017-12-26T05:46:23.644Z,101079.56
2017-12-26T05:48:52.661Z,101079.52
2017-12-26T05:51:21.655Z,101081.31
2017-12-26T05:53:52.034Z,101078.08
2017-12-26T05:56:21.693Z,101082.37
2017-12-26T05:58:51.486Z,101081.02
2017-12-26T06:01:20.447Z,101072.89
2017-12-26T06:03:49.490Z,101074.97
2017-12-26T06:06:19.405Z,101082.96
2017-12-26T06:08:50.857Z,101080.09
2017-12-26T06:11:22.105Z,101084.85
2017-12-26T06:13:52.249Z,101081.37
2017-12-26T06:16:22.532Z,101076.25
2017-12-26T06:18:51.537Z,101081.64
2017-12-26T06:21:20.639Z,101074.00
2017-12-26T06:23:49.606Z,101074.91
2017-12-26T06:26:18.522Z,101070.42
2017-12-26T06:28:47.621Z,101070.64
2017-12-26T06:31:17.432Z,101071.13
2017-12-26T06:33:47.347Z,101064.83
2017-12-26T06:36:17.466Z,101069.63
2017-12-26T06:38:46.460Z,101063.66
2017-12-26T06:41:15.455Z,101064.91
2017-12-26T06:43:46.396Z,101061.06
2017-12-26T06:46:15.326Z,101057.31
2017-12-26T06:48:45.197Z,101054.64
2017-12-26T06:51:14.276Z,101060.89
2017-12-26T06:53:43.291Z,101058.28
2017-12-26T06:56:12.385Z,101058.54
2017-12-26T06:58:41.379Z,101051.98
2017-12-26T07:01:11.164Z,101051.73
2017-12-26T07:03:40.183Z,101054.10
2017-12-26T07:06:09.268Z,101050.43
2017-12-26T07:08:38.209Z,101053.16
2017-12-26T07:11:07.260Z,101053.32
2017-12-26T07:13:38.767Z,101047.09
2017-12-26T07:16:07.784Z,101047.22
2017-12-26T07:18:37.630Z,101055.81
2017-12-26T07:24:10.214Z,101046.37
2017-12-26T07:26:40.709Z,101050.27
2017-12-26T07:29:09.856Z,101050.39
2017-12-26T07:31:38.987Z,101052.56
2017-12-26T07:34:08.115Z,101056.00
2017-12-26T07:36:37.082Z,101045.38
2017-12-26T07:39:06.137Z,101046.27
2017-12-26T07:41:36.767Z,101046.80
2017-12-26T07:44:08.316Z,101043.48
2017-12-26T07:46:37.421Z,101039.76
2017-12-26T07:49:07.225Z,101044.11
2017-12-26T07:51:36.431Z,101041.62
2017-12-26T07:54:05.625Z,101049.16
2017-12-26T07:56:36.464Z,101041.15
2017-12-26T07:59:05.462Z,101041.20
2017-12-26T08:01:35.683Z,101032.84
2017-12-26T08:04:04.842Z,101029.94
2017-12-26T08:06:35.344Z,101041.48
2017-12-26T08:09:04.509Z,101032.20
2017-12-26T08:11:34.485Z,101033.07
2017-12-26T08:14:03.430Z,101036.89
2017-12-26T08:16:34.192Z,101033.32
2017-12-26T08:19:03.809Z,101027.41
2017-12-26T08:21:33.673Z,101032.40
2017-12-26T08:24:06.984Z,101029.87
2017-12-26T08:26:36.742Z,101036.23
2017-12-26T08:29:05.774Z,101029.55
2017-12-26T08:31:37.528Z,101029.66
2017-12-26T08:34:06.896Z,101027.16
2017-12-26T08:36:35.930Z,101025.50
2017-12-26T08:39:05.858Z,101032.33
2017-12-26T08:41:35.597Z,101024.30
2017-12-26T08:44:04.600Z,101020.09
2017-12-26T08:46:34.997Z,101015.45
2017-12-26T08:49:05.038Z,101007.92
2017-12-26T08:51:34.092Z,101006.23
2017-12-26T08:54:05.587Z,101004.57
2017-12-26T08:56:35.590Z,101001.64
2017-12-26T08:59:04.666Z,101006.77
2017-12-26T09:01:33.827Z,100992.81
2017-12-26T09:04:03.819Z,100986.88
2017-12-26T09:06:34.531Z,100983.92
2017-12-26T09:09:03.762Z,100983.11
2017-12-26T09:11:32.856Z,100981.52
2017-12-26T09:14:02.827Z,100980.23
2017-12-26T09:16:32.971Z,100974.29
2017-12-26T09:19:01.985Z,100966.56
2017-12-26T09:21:31.076Z,100965.36
2017-12-26T09:24:01.045Z,100959.06
2017-12-26T09:26:31.419Z,100950.22
2017-12-26T09:29:00.610Z,100942.59
2017-12-26T09:31:29.569Z,100934.53
2017-12-26T09:34:00.661Z,100941.33
2017-12-26T09:36:29.859Z,100929.45
2017-12-26T09:38:58.973Z,100929.89
2017-12-26T09:41:29.129Z,100916.37
2017-12-26T09:43:59.482Z,100918.49
2017-12-26T09:46:29.677Z,100909.16
2017-12-26T09:48:58.826Z,100901.53
2017-12-26T09:51:28.684Z,100901.14
2017-12-26T09:53:59.135Z,100899.44
2017-12-26T09:56:28.163Z,100886.73
2017-12-26T09:58:57.254Z,100889.70
2017-12-26T10:01:27.985Z,100879.09
2017-12-26T10:03:57.476Z,100876.97
2017-12-26T10:06:27.419Z,100876.97
2017-12-26T10:08:59.831Z,100868.05
2017-12-26T10:11:29.756Z,100862.55
2017-12-26T10:13:59.706Z,100863.81
2017-12-26T10:16:30.707Z,100861.25
2017-12-26T10:18:59.953Z,100857.42
2017-12-26T10:21:30.427Z,100856.58
2017-12-26T10:24:03.231Z,100845.97
2017-12-26T10:26:33.330Z,100848.53
2017-12-26T10:29:03.150Z,100838.32
2017-12-26T10:31:36.245Z,100822.17
2017-12-26T10:34:14.452Z,100825.16
2017-12-26T10:36:43.856Z,100817.48
2017-12-26T10:39:12.852Z,100818.33
2017-12-26T10:41:41.802Z,100811.51
2017-12-26T10:44:12.112Z,100810.23
2017-12-26T10:46:41.099Z,100801.73
2017-12-26T10:49:11.074Z,100808.05
2017-12-26T10:51:45.056Z,100815.32
2017-12-26T10:54:13.976Z,100804.73
2017-12-26T10:56:42.928Z,100803.86
2017-12-26T10:59:12.783Z,100803.02
2017-12-26T11:01:44.280Z,100799.19
2017-12-26T11:04:18.140Z,100790.70
2017-12-26T11:06:47.244Z,100791.55
2017-12-26T11:09:17.596Z,100790.28
2017-12-26T11:11:48.347Z,100783.47
2017-12-26T11:14:17.443Z,100779.17
2017-12-26T11:16:51.099Z,100776.63
2017-12-26T11:19:21.018Z,100768.98
2017-12-26T11:21:51.039Z,100769.81
2017-12-26T11:24:23.461Z,100766.86
2017-12-26T11:26:52.705Z,100754.49
2017-12-26T11:29:21.596Z,100754.45
2017-12-26T11:34:24.809Z,100740.81
2017-12-26T11:36:53.949Z,100739.09
2017-12-26T11:39:22.952Z,100734.38
2017-12-26T11:41:53.710Z,100729.70
2017-12-26T11:44:23.589Z,100725.46
2017-12-26T11:46:52.644Z,100725.02
2017-12-26T11:49:23.484Z,100719.44
2017-12-26T11:51:56.304Z,100722.38
2017-12-26T11:54:26.322Z,100721.03
2017-12-26T11:56:55.994Z,100721.06
2017-12-26T11:59:26.886Z,100713.29
2017-12-26T12:01:56.714Z,100698.78
2017-12-26T12:04:32.293Z,100701.33
2017-12-26T12:07:03.690Z,100699.61
2017-12-26T12:09:35.396Z,100693.45
2017-12-26T12:12:04.596Z,100690.00
2017-12-26T12:14:34.367Z,100688.66
2017-12-26T12:17:03.996Z,100685.74
2017-12-26T12:19:32.925Z,100681.09
2017-12-26T12:22:02.937Z,100682.83
2017-12-26T12:24:34.001Z,100675.56
2017-12-26T12:27:03.181Z,100673.86
2017-12-26T12:29:32.273Z,100668.32
2017-12-26T12:32:02.142Z,100671.32
2017-12-26T12:34:31.236Z,100667.91
2017-12-26T12:37:00.490Z,100667.48
2017-12-26T12:39:30.035Z,100661.53
2017-12-26T12:41:59.015Z,100654.30
2017-12-26T12:44:27.980Z,100647.24
2017-12-26T12:46:57.777Z,100648.06
2017-12-26T12:49:27.649Z,100642.54
2017-12-26T12:51:57.169Z,100640.86
2017-12-26T12:54:27.129Z,100647.70
2017-12-26T12:56:57.317Z,100646.42
2017-12-26T12:59:27.252Z,100642.98
2017-12-26T13:01:56.778Z,100647.66
2017-12-26T13:04:26.020Z,100645.52
2017-12-26T13:06:56.268Z,100645.50
2017-12-26T13:09:27.362Z,100642.15
2017-12-26T13:11:56.893Z,100642.98
2017-12-26T13:14:29.721Z,100637.48
2017-12-26T13:16:59.848Z,100634.05
2017-12-26T13:19:28.945Z,100637.47
2017-12-26T13:24:33.550Z,100634.22
2017-12-26T13:27:03.707Z,100630.41
2017-12-26T13:29:32.802Z,100630.41
2017-12-26T13:32:02.652Z,100633.83
2017-12-26T13:34:35.808Z,100629.64
2017-12-26T13:37:05.005Z,100627.11
2017-12-26T13:39:34.211Z,100624.55
2017-12-26T13:42:04.145Z,100625.84
2017-12-26T13:44:33.836Z,100622.05
2017-12-26T13:47:03.229Z,100619.96
2017-12-26T13:49:34.298Z,100620.81
2017-12-26T13:52:04.190Z,100618.39
2017-12-26T13:54:33.184Z,100606.13
2017-12-26T13:57:03.069Z,100612.90
2017-12-26T13:59:35.063Z,100608.67
2017-12-26T14:02:05.063Z,100608.75
2017-12-26T14:04:34.075Z,100607.08
2017-12-26T14:07:03.989Z,100607.13
2017-12-26T14:09:33.859Z,100605.03
2017-12-26T14:12:02.846Z,100602.92
2017-12-26T14:14:32.916Z,100601.70
2017-12-26T14:17:01.914Z,100597.48
2017-12-26T14:19:30.954Z,100595.39
2017-12-26T14:21:59.941Z,100596.25
2017-12-26T14:24:29.143Z,100593.72
2017-12-26T14:26:58.032Z,100598.82
2017-12-26T14:29:28.004Z,100595.86
2017-12-26T14:31:58.022Z,100595.88
2017-12-26T14:34:28.184Z,100597.61
2017-12-26T14:36:57.306Z,100585.73
2017-12-26T14:41:59.936Z,100595.03
2017-12-26T14:44:28.929Z,100589.55
2017-12-26T14:46:58.130Z,100589.95
2017-12-26T14:49:27.070Z,100590.38
2017-12-26T14:51:56.161Z,100578.92
2017-12-26T14:54:27.669Z,100575.97
2017-12-26T14:56:56.970Z,100577.62
2017-12-26T14:59:26.221Z,100584.81
2017-12-26T15:01:57.000Z,100586.05
2017-12-26T15:04:26.152Z,100586.88
2017-12-26T15:06:55.102Z,100590.68
2017-12-26T15:09:25.158Z,100585.55
2017-12-26T15:11:54.418Z,100589.37
2017-12-26T15:14:23.306Z,100584.77
2017-12-26T15:16:56.297Z,100586.04
2017-12-26T15:19:26.712Z,100584.35
2017-12-26T15:21:55.664Z,100576.73
2017-12-26T15:24:26.348Z,100578.00
2017-12-26T15:26:56.263Z,100573.77
2017-12-26T15:29:26.196Z,100574.18
2017-12-26T15:31:57.064Z,100572.87
2017-12-26T15:34:26.110Z,100578.79
2017-12-26T15:36:55.059Z,100578.80
2017-12-26T15:39:24.162Z,100572.49
2017-12-26T15:41:54.217Z,100575.04
2017-12-26T15:44:23.135Z,100572.93
2017-12-26T15:49:26.924Z,100581.02
2017-12-26T15:51:55.929Z,100575.12
2017-12-26T15:54:24.986Z,100570.47
2017-12-26T15:56:55.300Z,100565.39
2017-12-26T15:59:24.286Z,100564.96
2017-12-26T16:01:54.104Z,100566.23
2017-12-26T16:04:23.150Z,100573.84
2017-12-26T16:06:53.109Z,100573.84
2017-12-26T16:09:24.669Z,100580.20
2017-12-26T16:11:53.819Z,100581.89
2017-12-26T16:14:23.068Z,100581.89
2017-12-26T16:16:53.710Z,100578.93
2017-12-26T16:19:23.788Z,100580.20
2017-12-26T16:21:52.727Z,100580.20
2017-12-26T16:24:21.788Z,100577.66
2017-12-26T16:26:50.771Z,100572.55
2017-12-26T16:29:20.008Z,100575.09
2017-12-26T16:31:49.915Z,100574.23
2017-12-26T16:34:19.019Z,100572.08
2017-12-26T16:36:53.320Z,100569.97
2017-12-26T16:39:22.371Z,100566.57
2017-12-26T16:41:51.367Z,100567.38
2017-12-26T16:44:22.775Z,100569.05
2017-12-26T16:46:51.921Z,100573.28
2017-12-26T16:49:20.985Z,100572.50
2017-12-26T16:51:56.147Z,100564.03
2017-12-26T16:54:26.684Z,100561.50
2017-12-26T16:56:56.043Z,100563.20
2017-12-26T16:59:25.222Z,100559.81
2017-12-26T17:01:55.275Z,100566.59
2017-12-26T17:04:25.107Z,100572.93
2017-12-26T17:06:54.249Z,100572.13
2017-12-26T17:09:23.396Z,100565.78
2017-12-26T17:11:53.383Z,100561.97
2017-12-26T17:14:23.468Z,100565.78
2017-12-26T17:16:52.993Z,100555.63
2017-12-26T17:19:21.938Z,100559.44
2017-12-26T17:24:31.063Z,100564.51
2017-12-26T17:27:00.388Z,100567.89
2017-12-26T17:29:29.587Z,100564.09
2017-12-26T17:31:59.495Z,100561.97
2017-12-26T17:34:28.539Z,100562.81
2017-12-26T17:36:57.692Z,100562.36
2017-12-26T17:39:28.709Z,100561.93
2017-12-26T17:41:57.613Z,100565.31
2017-12-26T17:44:28.843Z,100553.08
2017-12-26T17:46:57.969Z,100557.31
2017-12-26T17:49:27.122Z,100556.89
2017-12-26T17:51:56.957Z,100548.82
2017-12-26T17:57:01.728Z,100557.28
2017-12-26T17:59:33.030Z,100552.63
2017-12-26T18:04:40.890Z,100541.57
2017-12-26T18:07:10.000Z,100547.91
2017-12-26T18:09:38.980Z,100544.11
2017-12-26T18:12:10.434Z,100536.48
2017-12-26T18:14:39.481Z,100543.67
2017-12-26T18:17:08.470Z,100530.53
2017-12-26T18:19:39.763Z,100542.37
2017-12-26T18:22:08.915Z,100542.36
2017-12-26T18:24:38.039Z,100534.77
2017-12-26T18:29:42.854Z,100531.42
2017-12-26T18:32:12.010Z,100523.44
2017-12-26T18:34:42.617Z,100520.48
2017-12-26T18:37:12.617Z,100517.52
2017-12-26T18:39:41.600Z,100519.21
2017-12-26T18:42:10.632Z,100513.29
2017-12-26T18:47:16.547Z,100508.64
2017-12-26T18:49:45.796Z,100509.45
2017-12-26T18:52:15.841Z,100514.13
2017-12-26T18:54:44.990Z,100515.41
2017-12-26T18:57:13.950Z,100520.90
2017-12-26T18:59:48.770Z,100514.14
2017-12-26T19:02:18.805Z,100513.71
2017-12-26T19:04:47.794Z,100498.91
2017-12-26T19:07:16.891Z,100493.02
2017-12-26T19:09:46.804Z,100503.59
2017-12-26T19:12:15.939Z,100505.70
2017-12-26T19:14:45.778Z,100498.51
2017-12-26T19:17:14.815Z,100492.59
2017-12-26T19:19:43.863Z,100496.80
2017-12-26T19:22:13.728Z,100503.56
2017-12-26T19:24:42.919Z,100498.06
2017-12-26T19:27:14.059Z,100488.78
2017-12-26T19:29:44.703Z,100484.10
2017-12-26T19:32:13.689Z,100478.63
2017-12-26T19:34:43.704Z,100468.88
2017-12-26T19:37:12.801Z,100475.67
2017-12-26T19:39:41.887Z,100473.95
2017-12-26T19:42:11.146Z,100478.61
2017-12-26T19:44:41.112Z,100471.39
2017-12-26T19:47:10.108Z,100466.31
2017-12-26T19:49:40.483Z,100463.78
2017-12-26T19:52:10.448Z,100462.51
2017-12-26T19:54:39.751Z,100465.05
2017-12-26T19:57:09.688Z,100462.05
2017-12-26T19:59:38.662Z,100456.12
2017-12-26T20:02:08.547Z,100458.61
2017-12-26T20:04:38.390Z,100449.73
2017-12-26T20:07:08.793Z,100457.28
2017-12-26T20:09:39.651Z,100452.64
2017-12-26T20:12:08.910Z,100451.83
2017-12-26T20:14:38.011Z,100448.45
2017-12-26T20:17:08.009Z,100450.14
2017-12-26T20:22:14.458Z,100446.72
2017-12-26T20:24:44.419Z,100449.66
2017-12-26T20:27:13.566Z,100444.12
2017-12-26T20:29:42.769Z,100439.05
2017-12-26T20:32:13.608Z,100441.21
2017-12-26T20:34:45.372Z,100442.90
2017-12-26T20:37:15.442Z,100438.21
2017-12-26T20:39:45.293Z,100436.06
2017-12-26T20:42:14.448Z,100436.52
2017-12-26T20:44:43.538Z,100442.39
2017-12-26T20:47:15.548Z,100440.32
2017-12-26T20:49:44.810Z,100428.53
2017-12-26T20:52:15.902Z,100432.34
2017-12-26T20:54:46.116Z,100430.23
2017-12-26T20:57:15.111Z,100432.77
2017-12-26T21:02:24.936Z,100425.16
2017-12-26T21:04:54.175Z,100423.89
2017-12-26T21:07:23.442Z,100423.47
2017-12-26T21:09:52.520Z,100427.22
2017-12-26T21:12:22.585Z,100422.53
2017-12-26T21:14:51.791Z,100424.22
2017-12-26T21:17:20.879Z,100427.61
2017-12-26T21:19:49.874Z,100428.45
2017-12-26T21:22:18.927Z,100421.69
2017-12-26T21:27:25.050Z,100420.84
2017-12-26T21:29:55.076Z,100419.58
2017-12-26T21:32:24.880Z,100409.00
2017-12-26T21:34:53.816Z,100407.72
2017-12-26T21:37:22.821Z,100416.59
2017-12-26T21:39:52.023Z,100406.05
2017-12-26T21:42:21.665Z,100406.53
2017-12-26T21:44:50.924Z,100404.42
2017-12-26T21:47:20.076Z,100398.12
2017-12-26T21:49:51.119Z,100394.33
2017-12-26T21:52:20.313Z,100390.95
2017-12-26T21:54:49.972Z,100388.04
2017-12-26T21:57:21.068Z,100383.39
2017-12-26T21:59:50.522Z,100384.24
2017-12-26T22:02:19.692Z,100382.13
2017-12-26T22:04:51.624Z,100378.78
2017-12-26T22:07:20.789Z,100377.94
2017-12-26T22:09:50.007Z,100378.78
2017-12-26T22:12:22.216Z,100381.31
2017-12-26T22:14:52.686Z,100373.67
2017-12-26T22:17:21.732Z,100371.98
2017-12-26T22:22:26.935Z,100358.05
2017-12-26T22:24:55.930Z,100355.93
2017-12-26T22:27:25.400Z,100351.25
2017-12-26T22:29:54.423Z,100343.22
2017-12-26T22:32:23.626Z,100343.22
2017-12-26T22:34:58.405Z,100345.33
2017-12-26T22:37:29.139Z,100340.69
2017-12-26T22:39:58.240Z,100339.84
2017-12-26T22:42:28.190Z,100333.50
2017-12-26T22:44:58.169Z,100332.66
2017-12-26T22:47:27.579Z,100328.02
2017-12-26T22:49:57.663Z,100327.63
2017-12-26T22:52:27.564Z,100325.51
2017-12-26T22:54:56.712Z,100320.86
2017-12-26T22:57:26.613Z,100317.48
2017-12-26T22:59:55.973Z,100315.79
2017-12-26T23:02:25.905Z,100309.88
2017-12-26T23:07:32.220Z,100306.07
2017-12-26T23:10:02.966Z,100305.64
2017-12-26T23:12:36.221Z,100305.25
2017-12-26T23:15:11.680Z,100306.09
2017-12-26T23:17:48.500Z,100303.98
2017-12-26T23:20:23.605Z,100297.64
2017-12-26T23:22:59.035Z,100301.87
2017-12-26T23:25:33.475Z,100300.59
2017-12-26T23:28:10.321Z,100299.75
2017-12-26T23:30:44.874Z,100299.33
2017-12-26T23:33:22.579Z,100292.15
2017-12-26T23:35:57.202Z,100294.66
2017-12-26T23:38:34.183Z,100292.97
2017-12-26T23:41:08.602Z,100292.13
2017-12-26T23:46:47.760Z,100286.22
2017-12-26T23:49:23.196Z,100282.84
2017-12-26T23:51:58.546Z,100282.42
2017-12-26T23:54:34.807Z,100277.77
2017-12-26T23:57:10.292Z,100277.34
2017-12-26T23:59:44.876Z,100280.72
